Elkhart Municipal Airport


Codes: KEKM/EKI
Name: Elkhart Municipal Airport
City: Elkhart
Country: United States
Elevation: 778 ft.
Website:
Wikipedia:

Photos at Elkhart Municipal Airport


   Photos courtesy of SpottingLog. You can add your own sightings and photos by signing up for a free trial today.



No photos found.

Weather at Elkhart Municipal Airport


Time (UTC)DescriptionTempratureWindCloud coverageVisibilityPressureHumidity
15-Apr-2024 15:00Clear Sky18°C9 mph, E0%10000m1015hPa44%
15-Apr-2024 18:00Scattered Clouds19°C2 mph, N26%10000m1015hPa42%
15-Apr-2024 21:00Few Clouds20°C11 mph, NW12%10000m1015hPa39%
16-Apr-2024 00:00Clear Sky14°C9 mph, N9%10000m1017hPa59%
16-Apr-2024 03:00Clear Sky11°C9 mph, NE0%10000m1018hPa64%
16-Apr-2024 06:00Clear Sky10°C9 mph, NE7%10000m1019hPa64%
16-Apr-2024 09:00Overcast Clouds9°C11 mph, E88%10000m1019hPa66%
16-Apr-2024 12:00Overcast Clouds9°C13 mph, E94%10000m1019hPa70%
16-Apr-2024 15:00Overcast Clouds14°C16 mph, E100%10000m1018hPa60%
16-Apr-2024 18:00Light Rain18°C18 mph, SE100%10000m1016hPa58%
16-Apr-2024 21:00Overcast Clouds20°C18 mph, SE100%10000m1013hPa65%
17-Apr-2024 00:00Overcast Clouds15°C20 mph, SE100%10000m1010hPa74%
17-Apr-2024 03:00Light Rain13°C18 mph, SE100%10000m1011hPa88%
17-Apr-2024 06:00Light Rain15°C16 mph, SE90%10000m1008hPa94%
17-Apr-2024 09:00Light Rain16°C18 mph, S92%10000m1006hPa92%
17-Apr-2024 12:00Light Rain16°C16 mph, S90%10000m1005hPa92%
17-Apr-2024 15:00Light Rain17°C18 mph, S100%10000m1003hPa89%
17-Apr-2024 18:00Light Rain19°C18 mph, SW100%9837m1001hPa81%
17-Apr-2024 21:00Light Rain19°C20 mph, SW94%10000m1001hPa65%
18-Apr-2024 00:00Light Rain14°C16 mph, W90%10000m1004hPa79%
18-Apr-2024 03:00Broken Clouds13°C16 mph, W81%10000m1007hPa79%
18-Apr-2024 06:00Overcast Clouds11°C16 mph, W91%10000m1010hPa78%
18-Apr-2024 09:00Overcast Clouds10°C13 mph, W100%10000m1012hPa74%
18-Apr-2024 12:00Overcast Clouds9°C11 mph, W100%10000m1014hPa76%
18-Apr-2024 15:00Overcast Clouds10°C16 mph, NW95%10000m1017hPa68%
18-Apr-2024 18:00Overcast Clouds13°C11 mph, W85%10000m1016hPa55%
18-Apr-2024 21:00Overcast Clouds14°C9 mph, NW93%10000m1015hPa52%
19-Apr-2024 00:00Overcast Clouds12°C7 mph, NW97%10000m1016hPa62%
19-Apr-2024 03:00Light Rain8°C11 mph, NW100%10000m1017hPa82%
19-Apr-2024 06:00Overcast Clouds8°C7 mph, W100%10000m1017hPa84%
19-Apr-2024 09:00Overcast Clouds8°C9 mph, NW100%10000m1017hPa81%
19-Apr-2024 12:00Overcast Clouds6°C9 mph, NW100%10000m1018hPa73%
19-Apr-2024 15:00Clear Sky10°C16 mph, NW4%10000m1019hPa42%
19-Apr-2024 18:00Scattered Clouds10°C18 mph, NW41%10000m1018hPa39%
19-Apr-2024 21:00Scattered Clouds10°C18 mph, NW34%10000m1017hPa39%
20-Apr-2024 00:00Few Clouds8°C16 mph, NW19%10000m1018hPa48%
20-Apr-2024 03:00Clear Sky6°C13 mph, NW1%10000m1019hPa53%
20-Apr-2024 06:00Scattered Clouds4°C13 mph, NW27%10000m1020hPa57%
20-Apr-2024 09:00Clear Sky2°C11 mph, NW3%10000m1021hPa60%
20-Apr-2024 12:00Clear Sky2°C11 mph, NW6%10000m1022hPa65%